createdAt,value
2022-09-05T00:02:49.339Z,12.68
2022-09-05T00:13:06.995Z,10.98
2022-09-05T00:24:30.064Z,16.50
2022-09-05T00:33:59.196Z,10.60
2022-09-05T00:44:05.494Z,17.02
2022-09-05T00:54:41.222Z,15.60
2022-09-05T01:04:52.922Z,15.27
2022-09-05T01:15:08.403Z,14.43
2022-09-05T01:25:29.087Z,17.70
2022-09-05T01:36:04.345Z,11.77
2022-09-05T01:46:23.819Z,16.58
2022-09-05T01:56:45.497Z,10.48
2022-09-05T02:07:22.515Z,12.45
2022-09-05T02:17:50.796Z,15.30
2022-09-05T02:28:04.864Z,22.23
2022-09-05T02:41:52.662Z,21.20
2022-09-05T02:48:51.111Z,27.00
2022-09-05T02:59:10.892Z,25.80
2022-09-05T03:09:30.201Z,18.17
2022-09-05T03:20:19.495Z,25.10
2022-09-05T03:30:24.989Z,21.52
2022-09-05T03:40:57.120Z,20.58
2022-09-05T03:57:08.512Z,19.40
2022-09-05T04:02:33.707Z,20.08
2022-09-05T04:12:18.651Z,19.27
2022-09-05T04:22:31.151Z,10.50
2022-09-05T04:32:54.810Z,27.35
2022-09-05T04:43:03.312Z,16.95
2022-09-05T04:53:20.451Z,18.52
2022-09-05T05:06:03.933Z,16.80
2022-09-05T05:17:58.463Z,20.27
2022-09-05T05:24:27.888Z,21.60
2022-09-05T05:34:35.661Z,19.45
2022-09-05T05:44:40.327Z,19.30
2022-09-05T05:54:50.989Z,19.25
2022-09-05T06:05:45.513Z,26.05
2022-09-05T06:16:12.124Z,21.85
2022-09-05T06:26:36.749Z,19.58
2022-09-05T06:36:52.265Z,18.55
2022-09-05T06:47:22.914Z,17.15
2022-09-05T06:57:53.539Z,20.75
2022-09-05T07:08:13.624Z,15.35
2022-09-05T07:18:40.733Z,9.55
2022-09-05T07:28:47.652Z,12.10
2022-09-05T07:39:25.288Z,9.13
2022-09-05T07:49:27.878Z,11.70
2022-09-05T07:59:38.111Z,6.57
2022-09-05T08:10:06.432Z,6.75
2022-09-05T08:20:26.545Z,5.32
2022-09-05T08:30:37.538Z,12.95
2022-09-05T08:40:51.639Z,11.75
2022-09-05T08:51:12.840Z,10.02
2022-09-05T09:01:36.849Z,7.60
2022-09-05T09:11:56.421Z,8.05
2022-09-05T09:22:13.478Z,5.15
2022-09-05T09:32:21.591Z,8.73
2022-09-05T09:42:37.515Z,6.25
2022-09-05T09:53:03.626Z,7.05
2022-09-05T10:09:03.030Z,4.88
2022-09-05T10:14:49.692Z,5.32
2022-09-05T10:25:19.341Z,4.63
2022-09-05T10:35:27.755Z,4.50
2022-09-05T10:45:46.273Z,2.90
2022-09-05T10:56:02.343Z,3.10
2022-09-05T11:06:14.810Z,6.90
2022-09-05T11:16:27.590Z,5.35
2022-09-05T11:26:39.152Z,6.97
2022-09-05T11:39:53.716Z,5.07
2022-09-05T11:47:50.014Z,3.88
2022-09-05T12:08:36.988Z,4.55
2022-09-05T12:18:45.910Z,6.18
2022-09-05T12:41:34.144Z,5.25
2022-09-05T12:42:10.625Z,3.13
2022-09-05T12:50:15.043Z,5.90
2022-09-05T13:03:02.325Z,4.22
2022-09-05T13:14:41.116Z,4.57
2022-09-05T13:21:23.054Z,4.95
2022-09-05T13:37:58.121Z,3.65
2022-09-05T13:42:31.746Z,2.53
2022-09-05T13:52:39.929Z,6.72
2022-09-05T14:13:58.627Z,6.45
2022-09-05T14:24:12.948Z,4.47
2022-09-05T14:37:37.524Z,7.43
2022-09-05T14:45:42.999Z,4.80
2022-09-05T14:56:25.818Z,6.20
2022-09-05T15:06:33.890Z,5.80
2022-09-05T15:16:45.840Z,5.18
2022-09-05T15:26:53.792Z,7.78
2022-09-05T15:37:08.984Z,6.80
2022-09-05T15:47:25.661Z,3.17
2022-09-05T15:57:32.268Z,6.00
2022-09-05T16:10:41.916Z,6.10
2022-09-05T16:23:15.915Z,8.60
2022-09-05T16:28:47.556Z,6.40
2022-09-05T16:39:00.340Z,4.50
2022-09-05T16:49:12.125Z,5.93
2022-09-05T16:59:19.223Z,4.63
2022-09-05T17:09:25.935Z,3.13
2022-09-05T17:19:37.485Z,9.75
2022-09-05T17:31:14.536Z,9.10
2022-09-05T17:41:06.695Z,3.88
2022-09-05T17:51:11.084Z,8.07
2022-09-05T18:01:26.929Z,3.45
2022-09-05T18:12:03.061Z,15.18
2022-09-05T18:22:20.781Z,22.63
2022-09-05T18:32:43.846Z,24.83
2022-09-05T18:42:52.847Z,7.45
2022-09-05T18:53:10.548Z,7.85
2022-09-05T19:03:20.051Z,7.97
2022-09-05T19:13:32.378Z,13.13
2022-09-05T19:23:43.739Z,6.95
2022-09-05T19:36:55.345Z,7.68
2022-09-05T19:47:43.279Z,3.97
2022-09-05T19:54:52.069Z,11.73
2022-09-05T20:04:58.435Z,4.22
2022-09-05T20:15:20.259Z,9.13
2022-09-05T20:25:36.184Z,4.97
2022-09-05T20:43:08.174Z,6.93
2022-09-05T20:49:32.439Z,4.50
2022-09-05T20:56:32.564Z,4.13
2022-09-05T21:06:41.373Z,5.25
2022-09-05T21:16:47.607Z,5.90
2022-09-05T21:26:52.347Z,2.72
2022-09-05T21:37:01.212Z,2.83
2022-09-05T21:47:42.353Z,3.58
2022-09-05T21:59:18.251Z,4.30
2022-09-05T22:08:06.167Z,3.55
2022-09-05T22:18:17.412Z,4.72
2022-09-05T22:28:27.326Z,5.50
2022-09-05T22:38:38.331Z,5.82
2022-09-05T22:48:42.660Z,5.63
2022-09-05T22:58:46.309Z,4.65
2022-09-05T23:08:51.030Z,4.70
2022-09-05T23:18:54.056Z,12.05
2022-09-05T23:28:58.563Z,11.30
2022-09-05T23:39:01.555Z,9.40
2022-09-05T23:49:05.954Z,9.82
2022-09-05T23:59:08.979Z,13.93
